Time;durP1;ratioP1;P1;durP2;ratioP2;P2;SDS_P1;SDS_P2;PMS_P1;PMS_P2;Temp;Humidity;BMP_temperature;BMP_pressure;BME280_temperature;BME280_humidity;BME280_pressure;Samples;Min_cycle;Max_cycle;Signal;HPM_P1;HPM_P2
2023/09/26 00:04:10;;;;;;;12.25;5.32;;;;;;;;;;10246601;28;20065;-64
2023/09/26 00:09:09;;;;;;;30.92;7.32;;;;;;;;;;10249978;28;20065;-65
2023/09/26 00:14:09;;;;;;;18.80;5.13;;;;;;;;;;10250897;28;20073;-65
2023/09/26 00:19:07;;;;;;;24.40;5.07;;;;;;;;;;10241444;28;20084;-65
2023/09/26 00:24:06;;;;;;;20.77;5.18;;;;;;;;;;10250916;28;20064;-66
2023/09/26 00:29:05;;;;;;;18.08;5.60;;;;;;;;;;10251088;28;20084;-64
2023/09/26 00:34:05;;;;;;;15.50;5.80;;;;;;;;;;10249888;28;20077;-66
2023/09/26 00:39:04;;;;;;;27.15;5.72;;;;;;;;;;10251221;28;20080;-66
2023/09/26 00:44:02;;;;;;;28.77;6.43;;;;;;;;;;10251258;28;20060;-65
2023/09/26 00:49:01;;;;;;;24.05;6.68;;;;;;;;;;10250431;28;20077;-65
2023/09/26 00:54:03;;;;;;;24.80;5.40;;;;;;;;;;10248934;28;20084;-66
2023/09/26 00:59:01;;;;;;;16.73;5.10;;;;;;;;;;10232917;28;20095;-66
2023/09/26 01:04:00;;;;;;;13.75;4.20;;;;;;;;;;10233680;28;20419;-66
2023/09/26 01:08:59;;;;;;;20.80;5.45;;;;;;;;;;10250637;28;20065;-66
2023/09/26 01:13:59;;;;;;;18.25;5.07;;;;;;;;;;10238227;28;20049;-66
2023/09/26 01:18:59;;;;;;;18.13;6.03;;;;;;;;;;10232413;28;20081;-66
2023/09/26 01:23:59;;;;;;;21.83;6.20;;;;;;;;;;10231901;28;20046;-66
2023/09/26 01:28:57;;;;;;;21.05;5.05;;;;;;;;;;10250060;28;20080;-66
2023/09/26 01:33:55;;;;;;;18.90;5.65;;;;;;;;;;10249547;28;20096;-66
2023/09/26 01:38:54;;;;;;;25.65;5.75;;;;;;;;;;10251621;28;20072;-66
2023/09/26 01:43:54;;;;;;;18.60;5.30;;;;;;;;;;10249732;28;20072;-66
2023/09/26 01:48:52;;;;;;;8.88;5.03;;;;;;;;;;10248452;28;20068;-66
2023/09/26 01:53:50;;;;;;;20.40;5.50;;;;;;;;;;10248285;28;20096;-66
2023/09/26 01:58:48;;;;;;;25.25;5.85;;;;;;;;;;10248951;28;20477;-66
2023/09/26 02:03:48;;;;;;;22.80;5.75;;;;;;;;;;10237830;28;20084;-66
2023/09/26 02:08:47;;;;;;;13.00;5.22;;;;;;;;;;10249662;28;20090;-66
2023/09/26 02:13:45;;;;;;;18.45;5.93;;;;;;;;;;10252180;28;20064;-66
2023/09/26 02:18:43;;;;;;;17.58;5.20;;;;;;;;;;10255872;28;20112;-66
2023/09/26 02:23:43;;;;;;;12.70;5.45;;;;;;;;;;10257558;28;20080;-67
2023/09/26 02:28:41;;;;;;;19.00;5.85;;;;;;;;;;10256574;28;20084;-66
2023/09/26 02:33:40;;;;;;;19.08;6.03;;;;;;;;;;10236830;28;20100;-66
2023/09/26 02:38:38;;;;;;;21.08;5.85;;;;;;;;;;10256398;28;20541;-65
2023/09/26 02:43:38;;;;;;;18.48;6.07;;;;;;;;;;10254340;28;20072;-65
2023/09/26 02:48:36;;;;;;;20.70;4.53;;;;;;;;;;10239882;28;20049;-66
2023/09/26 02:53:36;;;;;;;15.70;5.43;;;;;;;;;;10238299;28;20100;-65
2023/09/26 02:58:35;;;;;;;22.90;7.35;;;;;;;;;;10257016;28;20076;-66
2023/09/26 03:03:35;;;;;;;16.70;5.93;;;;;;;;;;10257637;28;20093;-66
2023/09/26 03:08:34;;;;;;;24.23;6.93;;;;;;;;;;10240786;28;20081;-66
2023/09/26 03:13:34;;;;;;;19.67;6.95;;;;;;;;;;10241536;28;20762;-65
2023/09/26 03:18:32;;;;;;;17.35;6.53;;;;;;;;;;10255996;28;20077;-66
2023/09/26 03:23:32;;;;;;;21.50;7.18;;;;;;;;;;10251438;28;20076;-65
2023/09/26 03:28:30;;;;;;;33.72;6.60;;;;;;;;;;10257061;28;20085;-66
2023/09/26 03:33:29;;;;;;;22.02;6.25;;;;;;;;;;10233573;28;20087;-63
2023/09/26 03:38:28;;;;;;;18.25;6.43;;;;;;;;;;10253273;28;20079;-65
2023/09/26 03:43:28;;;;;;;19.92;7.20;;;;;;;;;;10254265;28;20080;-65
2023/09/26 03:48:26;;;;;;;20.45;6.95;;;;;;;;;;10261358;28;20056;-65
2023/09/26 03:53:25;;;;;;;24.55;5.68;;;;;;;;;;10259712;28;20075;-65
2023/09/26 03:58:23;;;;;;;19.10;6.57;;;;;;;;;;10259978;28;20090;-65
2023/09/26 04:03:23;;;;;;;17.75;6.32;;;;;;;;;;10256173;28;20064;-65
2023/09/26 04:08:21;;;;;;;27.58;7.70;;;;;;;;;;10251822;28;20545;-66
2023/09/26 04:13:19;;;;;;;17.52;6.88;;;;;;;;;;10251221;28;20458;-68
2023/09/26 04:18:18;;;;;;;15.52;6.60;;;;;;;;;;10232543;28;20080;-68
2023/09/26 04:23:17;;;;;;;27.55;7.72;;;;;;;;;;10253672;28;20065;-67
2023/09/26 04:28:15;;;;;;;29.50;7.45;;;;;;;;;;10252669;28;20076;-66
2023/09/26 04:33:14;;;;;;;19.05;6.45;;;;;;;;;;10253749;28;20073;-66
2023/09/26 04:38:12;;;;;;;19.48;6.50;;;;;;;;;;10255507;28;20076;-65
2023/09/26 04:43:12;;;;;;;15.82;5.80;;;;;;;;;;10253651;28;20077;-66
2023/09/26 04:48:10;;;;;;;9.20;5.88;;;;;;;;;;10254564;28;20064;-67
2023/09/26 04:53:08;;;;;;;19.65;6.30;;;;;;;;;;10251267;28;20061;-67
2023/09/26 04:58:06;;;;;;;19.80;6.82;;;;;;;;;;10253151;28;20064;-66
2023/09/26 05:03:06;;;;;;;17.63;6.72;;;;;;;;;;10256269;28;20533;-67
2023/09/26 05:08:05;;;;;;;22.02;6.50;;;;;;;;;;10255668;28;20076;-67
2023/09/26 05:13:04;;;;;;;16.63;5.85;;;;;;;;;;10256592;28;20536;-66
2023/09/26 05:18:03;;;;;;;13.73;5.38;;;;;;;;;;10251785;28;20109;-66
2023/09/26 05:23:03;;;;;;;23.35;6.95;;;;;;;;;;10252549;28;20076;-67
2023/09/26 05:28:02;;;;;;;12.18;6.30;;;;;;;;;;10251823;28;20088;-67
2023/09/26 05:33:00;;;;;;;17.13;5.90;;;;;;;;;;10236674;28;20088;-68
2023/09/26 05:37:58;;;;;;;15.77;5.90;;;;;;;;;;10239618;28;20072;-68
2023/09/26 05:42:58;;;;;;;15.07;6.15;;;;;;;;;;10255383;28;20080;-68
2023/09/26 05:47:57;;;;;;;18.90;6.22;;;;;;;;;;10253186;28;20175;-67
2023/09/26 05:52:55;;;;;;;30.35;8.13;;;;;;;;;;10250595;28;20076;-67
2023/09/26 05:57:53;;;;;;;20.02;5.57;;;;;;;;;;10252330;28;20080;-67
2023/09/26 06:02:54;;;;;;;25.70;5.40;;;;;;;;;;10256711;28;20080;-66
2023/09/26 06:07:53;;;;;;;16.10;5.25;;;;;;;;;;10252986;28;20077;-67
2023/09/26 06:12:53;;;;;;;22.38;6.13;;;;;;;;;;10252641;28;20072;-67
2023/09/26 06:17:59;;;;;;;14.73;5.22;;;;;;;;;;10251928;28;20084;-67
2023/09/26 06:22:57;;;;;;;17.60;6.22;;;;;;;;;;10250454;28;20065;-67
2023/09/26 06:27:56;;;;;;;15.48;4.35;;;;;;;;;;10251023;28;20494;-67
2023/09/26 06:32:55;;;;;;;28.83;5.95;;;;;;;;;;10236707;28;20076;-67
2023/09/26 06:37:55;;;;;;;17.05;5.00;;;;;;;;;;10237747;28;20073;-66
2023/09/26 06:42:55;;;;;;;7.85;5.22;;;;;;;;;;10252370;28;20076;-67
2023/09/26 06:47:53;;;;;;;13.23;4.82;;;;;;;;;;10249990;28;20463;-67
2023/09/26 06:52:52;;;;;;;13.00;5.03;;;;;;;;;;10247510;28;20729;-66
2023/09/26 06:57:51;;;;;;;19.70;6.93;;;;;;;;;;10248501;28;20072;-66
2023/09/26 07:02:50;;;;;;;12.20;4.93;;;;;;;;;;10255504;28;20526;-66
2023/09/26 07:07:48;;;;;;;15.65;4.63;;;;;;;;;;10258588;28;20073;-67
2023/09/26 07:12:46;;;;;;;12.35;5.28;;;;;;;;;;10256754;28;20295;-66
2023/09/26 07:17:46;;;;;;;16.83;5.25;;;;;;;;;;10259874;28;20060;-67
2023/09/26 07:22:44;;;;;;;10.07;5.00;;;;;;;;;;10258941;28;20068;-65
2023/09/26 07:27:43;;;;;;;14.88;5.10;;;;;;;;;;10256269;28;20081;-66
2023/09/26 07:32:46;;;;;;;8.98;4.50;;;;;;;;;;10258837;28;20544;-67
2023/09/26 07:37:44;;;;;;;12.05;5.05;;;;;;;;;;10255463;28;20125;-65
2023/09/26 07:42:42;;;;;;;11.38;5.07;;;;;;;;;;10254574;28;20080;-66
2023/09/26 07:47:41;;;;;;;12.73;4.50;;;;;;;;;;10254854;28;20069;-67
2023/09/26 07:52:40;;;;;;;11.07;4.65;;;;;;;;;;10255732;28;20085;-67
2023/09/26 07:57:39;;;;;;;7.78;4.57;;;;;;;;;;10256588;28;20545;-67
2023/09/26 08:02:37;;;;;;;13.15;5.00;;;;;;;;;;10255444;28;20505;-66
2023/09/26 08:07:35;;;;;;;18.02;5.97;;;;;;;;;;10258741;28;20076;-67
2023/09/26 08:12:36;;;;;;;6.72;4.30;;;;;;;;;;10253061;28;20068;-66
2023/09/26 08:17:34;;;;;;;12.07;5.07;;;;;;;;;;10255660;28;20735;-67
2023/09/26 08:22:33;;;;;;;9.40;5.13;;;;;;;;;;10255978;28;20143;-67
2023/09/26 08:27:31;;;;;;;14.20;5.43;;;;;;;;;;10239538;28;20084;-67
2023/09/26 08:32:31;;;;;;;17.42;5.00;;;;;;;;;;10253408;28;20566;-68
2023/09/26 08:37:30;;;;;;;10.43;4.32;;;;;;;;;;10257918;28;20076;-67
2023/09/26 08:42:29;;;;;;;20.23;5.00;;;;;;;;;;10256942;28;20506;-68
2023/09/26 08:47:27;;;;;;;14.13;4.68;;;;;;;;;;10258464;28;20069;-68
2023/09/26 08:52:27;;;;;;;16.73;5.60;;;;;;;;;;10259401;28;20064;-67
2023/09/26 08:57:26;;;;;;;13.65;4.97;;;;;;;;;;10258336;28;20060;-66
2023/09/26 09:02:24;;;;;;;9.65;3.95;;;;;;;;;;10253483;28;20076;-66
2023/09/26 09:07:22;;;;;;;14.70;4.38;;;;;;;;;;10252116;28;20065;-66
2023/09/26 09:12:22;;;;;;;13.88;5.20;;;;;;;;;;10257072;28;20564;-65
2023/09/26 09:17:21;;;;;;;9.63;3.97;;;;;;;;;;10258870;28;20099;-66
2023/09/26 09:22:20;;;;;;;10.25;4.10;;;;;;;;;;10253976;28;20064;-67
2023/09/26 09:27:28;;;;;;;12.45;4.50;;;;;;;;;;10258627;28;20103;-66
2023/09/26 09:32:26;;;;;;;16.63;4.63;;;;;;;;;;10253789;28;20106;-65
2023/09/26 09:37:25;;;;;;;15.02;4.80;;;;;;;;;;10257166;28;20072;-66
2023/09/26 09:42:25;;;;;;;17.83;4.97;;;;;;;;;;10258774;28;20099;-65
2023/09/26 09:47:23;;;;;;;13.75;4.55;;;;;;;;;;10255208;28;20498;-66
2023/09/26 09:52:22;;;;;;;13.93;4.40;;;;;;;;;;10249398;28;20076;-64
2023/09/26 09:57:22;;;;;;;9.65;4.65;;;;;;;;;;10252856;28;20073;-67
2023/09/26 10:02:22;;;;;;;16.75;4.70;;;;;;;;;;10254112;28;20148;-67
2023/09/26 10:07:21;;;;;;;11.90;4.63;;;;;;;;;;10256208;28;20072;-66
2023/09/26 10:12:19;;;;;;;14.13;5.50;;;;;;;;;;10252024;28;20081;-66
2023/09/26 10:17:19;;;;;;;17.48;5.05;;;;;;;;;;10252602;28;20068;-68
2023/09/26 10:22:19;;;;;;;13.80;4.30;;;;;;;;;;10252725;28;20483;-66
2023/09/26 10:27:24;;;;;;;23.85;7.05;;;;;;;;;;10255134;28;20523;-66
2023/09/26 10:32:33;;;;;;;9.68;4.65;;;;;;;;;;10253328;28;20065;-66
2023/09/26 10:37:32;;;;;;;18.10;4.50;;;;;;;;;;10264051;28;20072;-66
2023/09/26 10:42:31;;;;;;;17.73;5.38;;;;;;;;;;10258892;28;20597;-66
2023/09/26 10:47:36;;;;;;;13.02;5.18;;;;;;;;;;10257953;28;20100;-66
2023/09/26 10:52:36;;;;;;;12.48;4.50;;;;;;;;;;10259612;28;20774;-66
2023/09/26 10:57:39;;;;;;;18.77;4.78;;;;;;;;;;10259703;28;20065;-67
2023/09/26 11:02:39;;;;;;;26.83;4.35;;;;;;;;;;10260673;28;20076;-67
2023/09/26 11:07:40;;;;;;;9.63;4.03;;;;;;;;;;10259416;28;21063;-66
2023/09/26 11:12:39;;;;;;;21.55;5.18;;;;;;;;;;10258702;28;20076;-66
2023/09/26 11:17:37;;;;;;;13.98;4.20;;;;;;;;;;10260745;28;20100;-67
2023/09/26 11:22:45;;;;;;;9.40;4.18;;;;;;;;;;10258941;28;20080;-67
2023/09/26 11:27:44;;;;;;;15.85;4.60;;;;;;;;;;10253414;28;20072;-66
2023/09/26 11:32:42;;;;;;;17.33;4.00;;;;;;;;;;10259735;28;20084;-67
2023/09/26 11:37:41;;;;;;;14.40;4.88;;;;;;;;;;10257577;28;20073;-66
2023/09/26 11:42:45;;;;;;;17.15;4.45;;;;;;;;;;10255899;28;20466;-67
2023/09/26 11:47:43;;;;;;;14.48;4.63;;;;;;;;;;10254537;28;20083;-67
2023/09/26 11:52:42;;;;;;;19.25;4.40;;;;;;;;;;10254902;28;20072;-67
2023/09/26 11:57:42;;;;;;;11.43;3.90;;;;;;;;;;10259260;28;20132;-67
2023/09/26 12:02:42;;;;;;;10.68;4.32;;;;;;;;;;10266706;28;20075;-67
2023/09/26 12:07:42;;;;;;;15.20;3.40;;;;;;;;;;10258486;28;20507;-67
2023/09/26 12:12:40;;;;;;;11.25;3.30;;;;;;;;;;10261958;28;20478;-67
2023/09/26 12:17:38;;;;;;;16.70;4.13;;;;;;;;;;10253740;28;20064;-66
2023/09/26 12:22:38;;;;;;;19.35;3.53;;;;;;;;;;10238267;28;20077;-66
2023/09/26 12:27:37;;;;;;;13.70;3.38;;;;;;;;;;10253599;28;20084;-66
2023/09/26 12:32:35;;;;;;;13.15;3.13;;;;;;;;;;10244017;28;20541;-65
2023/09/26 12:37:33;;;;;;;12.45;3.17;;;;;;;;;;10256451;28;20574;-66
2023/09/26 12:42:33;;;;;;;23.05;4.05;;;;;;;;;;10256465;28;20076;-67
2023/09/26 12:47:31;;;;;;;12.98;3.13;;;;;;;;;;10257691;28;20068;-65
2023/09/26 12:52:31;;;;;;;14.23;3.60;;;;;;;;;;10258498;28;20076;-66
2023/09/26 12:57:29;;;;;;;15.10;3.38;;;;;;;;;;10249044;28;20069;-67
2023/09/26 13:02:30;;;;;;;15.60;3.55;;;;;;;;;;10252355;28;20088;-67
2023/09/26 13:07:29;;;;;;;14.85;3.92;;;;;;;;;;10255298;28;20072;-66
2023/09/26 13:12:27;;;;;;;17.52;3.35;;;;;;;;;;10255684;28;20068;-65
2023/09/26 13:17:25;;;;;;;14.40;4.13;;;;;;;;;;10254222;28;20067;-66
2023/09/26 13:22:25;;;;;;;17.98;3.42;;;;;;;;;;10252625;28;20091;-66
2023/09/26 13:27:24;;;;;;;16.85;3.70;;;;;;;;;;10251933;28;20087;-66
2023/09/26 13:32:24;;;;;;;18.45;3.55;;;;;;;;;;10250620;28;20540;-68
2023/09/26 13:37:22;;;;;;;15.35;4.40;;;;;;;;;;10254241;28;20064;-68
2023/09/26 13:42:22;;;;;;;17.25;4.22;;;;;;;;;;10247993;28;20072;-68
2023/09/26 13:47:20;;;;;;;11.68;3.08;;;;;;;;;;10253384;28;20077;-68
2023/09/26 13:52:19;;;;;;;20.80;4.00;;;;;;;;;;10251886;28;20593;-68
2023/09/26 13:57:18;;;;;;;20.17;3.83;;;;;;;;;;10250942;28;20522;-68
2023/09/26 14:02:18;;;;;;;19.20;5.18;;;;;;;;;;10250336;28;20083;-68
2023/09/26 14:07:20;;;;;;;14.50;3.95;;;;;;;;;;10251280;28;20072;-67
2023/09/26 14:12:18;;;;;;;15.38;3.83;;;;;;;;;;10258365;28;20081;-67
2023/09/26 14:17:18;;;;;;;11.90;3.22;;;;;;;;;;10250203;28;20077;-66
2023/09/26 14:22:16;;;;;;;8.13;3.22;;;;;;;;;;10263188;28;20096;-67
2023/09/26 14:27:14;;;;;;;11.98;4.28;;;;;;;;;;10259546;28;20107;-68
2023/09/26 14:32:13;;;;;;;10.00;3.17;;;;;;;;;;10262991;28;20069;-69
2023/09/26 14:37:13;;;;;;;17.52;3.15;;;;;;;;;;10250793;28;20073;-68
2023/09/26 14:42:11;;;;;;;9.85;2.70;;;;;;;;;;10262848;28;20490;-68
2023/09/26 14:47:09;;;;;;;18.83;3.35;;;;;;;;;;10259872;28;20068;-68
2023/09/26 14:52:08;;;;;;;18.50;4.65;;;;;;;;;;10262723;28;20073;-67
2023/09/26 14:57:08;;;;;;;16.27;3.85;;;;;;;;;;10259550;28;20064;-67
2023/09/26 15:02:06;;;;;;;15.73;6.10;;;;;;;;;;10256898;28;20079;-67
2023/09/26 15:07:04;;;;;;;17.77;6.07;;;;;;;;;;10260084;28;20089;-66
2023/09/26 15:12:03;;;;;;;12.40;4.93;;;;;;;;;;10264370;28;20069;-67
2023/09/26 15:17:05;;;;;;;19.48;4.07;;;;;;;;;;10258581;28;20072;-66
2023/09/26 15:22:04;;;;;;;24.92;5.57;;;;;;;;;;10256913;28;20295;-67
2023/09/26 15:27:02;;;;;;;16.40;2.55;;;;;;;;;;10240241;28;20522;-66
2023/09/26 15:32:00;;;;;;;10.30;2.88;;;;;;;;;;10255809;28;20087;-67
2023/09/26 15:37:00;;;;;;;10.48;2.55;;;;;;;;;;10255974;28;20103;-67
2023/09/26 15:42:00;;;;;;;7.55;2.58;;;;;;;;;;10239681;28;20080;-66
2023/09/26 15:47:02;;;;;;;9.85;3.33;;;;;;;;;;10258113;28;20076;-66
2023/09/26 15:52:02;;;;;;;11.10;3.20;;;;;;;;;;10254628;28;20514;-67
2023/09/26 15:57:00;;;;;;;10.02;3.05;;;;;;;;;;10255068;28;20069;-67
2023/09/26 16:01:59;;;;;;;7.30;2.60;;;;;;;;;;10250753;28;20069;-67
2023/09/26 16:07:03;;;;;;;12.63;2.95;;;;;;;;;;10254670;28;20075;-66
2023/09/26 16:12:01;;;;;;;12.73;3.70;;;;;;;;;;10240372;28;20215;-67
2023/09/26 16:16:59;;;;;;;11.80;2.65;;;;;;;;;;10258483;28;20060;-67
2023/09/26 16:22:01;;;;;;;12.40;3.05;;;;;;;;;;10257556;28;20064;-67
2023/09/26 16:27:00;;;;;;;7.90;3.45;;;;;;;;;;10258727;28;20081;-67
2023/09/26 16:31:59;;;;;;;10.95;2.67;;;;;;;;;;10258935;28;20103;-67
2023/09/26 16:36:57;;;;;;;7.70;2.95;;;;;;;;;;10252177;28;20077;-69
2023/09/26 16:41:57;;;;;;;14.38;3.20;;;;;;;;;;10252110;28;20073;-67
2023/09/26 16:46:55;;;;;;;8.55;2.75;;;;;;;;;;10255675;28;20490;-68
2023/09/26 16:51:53;;;;;;;13.20;3.10;;;;;;;;;;10253711;28;20064;-67
2023/09/26 16:56:52;;;;;;;9.30;3.13;;;;;;;;;;10257414;28;20061;-67
2023/09/26 17:01:51;;;;;;;11.02;2.58;;;;;;;;;;10254667;28;20072;-68
2023/09/26 17:06:55;;;;;;;7.85;3.75;;;;;;;;;;10253127;28;20485;-68
2023/09/26 17:11:54;;;;;;;9.73;4.38;;;;;;;;;;10239606;28;20091;-68
2023/09/26 17:16:53;;;;;;;8.10;3.20;;;;;;;;;;10253217;28;20506;-68
2023/09/26 17:21:51;;;;;;;10.43;3.63;;;;;;;;;;10256974;28;20076;-67
2023/09/26 17:26:51;;;;;;;11.95;3.40;;;;;;;;;;10259256;28;20080;-67
2023/09/26 17:31:49;;;;;;;8.70;4.10;;;;;;;;;;10253194;28;20056;-66
2023/09/26 17:36:49;;;;;;;10.45;3.72;;;;;;;;;;10252321;28;20482;-67
2023/09/26 17:41:47;;;;;;;7.40;2.90;;;;;;;;;;10256774;28;20068;-66
2023/09/26 17:46:45;;;;;;;12.48;3.35;;;;;;;;;;10251059;28;20087;-67
2023/09/26 17:51:43;;;;;;;11.65;3.20;;;;;;;;;;10255709;28;20065;-67
2023/09/26 17:56:43;;;;;;;7.85;3.30;;;;;;;;;;10254990;28;20107;-67
2023/09/26 18:01:42;;;;;;;8.48;3.35;;;;;;;;;;10252829;28;20556;-68
2023/09/26 18:06:40;;;;;;;10.80;3.17;;;;;;;;;;10248375;28;20080;-68
2023/09/26 18:11:38;;;;;;;4.95;3.35;;;;;;;;;;10250127;28;20084;-68
2023/09/26 18:16:40;;;;;;;6.43;2.90;;;;;;;;;;10249411;28;20507;-68
2023/09/26 18:21:38;;;;;;;7.25;3.55;;;;;;;;;;10255430;28;20073;-67
2023/09/26 18:26:36;;;;;;;11.98;2.92;;;;;;;;;;10244880;28;20115;-68
2023/09/26 18:31:34;;;;;;;8.73;3.05;;;;;;;;;;10254040;28;20502;-67
2023/09/26 18:36:34;;;;;;;9.57;3.20;;;;;;;;;;10246125;28;20069;-68
2023/09/26 18:41:32;;;;;;;8.00;4.00;;;;;;;;;;10249039;28;20111;-67
2023/09/26 18:46:30;;;;;;;10.75;3.28;;;;;;;;;;10247904;28;20072;-67
2023/09/26 18:51:29;;;;;;;4.53;2.97;;;;;;;;;;10250100;28;20076;-67
2023/09/26 18:56:29;;;;;;;6.78;3.13;;;;;;;;;;10254209;28;20600;-68
2023/09/26 19:01:28;;;;;;;9.45;3.28;;;;;;;;;;10258430;28;20069;-68
2023/09/26 19:06:30;;;;;;;9.43;4.15;;;;;;;;;;10256144;28;20068;-68
2023/09/26 19:11:30;;;;;;;11.15;3.25;;;;;;;;;;10256671;28;20104;-68
2023/09/26 19:16:28;;;;;;;3.15;2.75;;;;;;;;;;10259139;28;20075;-68
2023/09/26 19:21:27;;;;;;;7.05;3.10;;;;;;;;;;10260178;28;20085;-68
2023/09/26 19:26:25;;;;;;;7.07;3.03;;;;;;;;;;10265020;28;20474;-67
2023/09/26 19:31:25;;;;;;;6.70;3.50;;;;;;;;;;10251213;28;20099;-66
2023/09/26 19:36:23;;;;;;;8.95;3.35;;;;;;;;;;10254132;28;20361;-67
2023/09/26 19:41:23;;;;;;;9.35;3.00;;;;;;;;;;10250552;28;20077;-67
2023/09/26 19:46:21;;;;;;;12.55;4.10;;;;;;;;;;10254283;28;20068;-67
2023/09/26 19:51:23;;;;;;;11.90;4.15;;;;;;;;;;10253583;28;20513;-68
2023/09/26 19:56:23;;;;;;;12.32;4.28;;;;;;;;;;10252434;28;20461;-67
2023/09/26 20:01:21;;;;;;;10.52;4.07;;;;;;;;;;10252393;28;20080;-68
2023/09/26 20:06:22;;;;;;;8.93;4.38;;;;;;;;;;10249685;28;20081;-66
2023/09/26 20:11:20;;;;;;;13.38;3.92;;;;;;;;;;10250064;28;20081;-66
2023/09/26 20:16:18;;;;;;;9.65;4.22;;;;;;;;;;10248894;28;20104;-67
2023/09/26 20:21:17;;;;;;;10.60;3.97;;;;;;;;;;10251506;28;20104;-67
2023/09/26 20:26:16;;;;;;;14.90;3.70;;;;;;;;;;10249806;28;21896;-67
2023/09/26 20:31:15;;;;;;;19.00;5.65;;;;;;;;;;10252099;28;20040;-67
2023/09/26 20:36:14;;;;;;;12.18;4.35;;;;;;;;;;10251279;28;20087;-67
2023/09/26 20:41:15;;;;;;;10.57;3.72;;;;;;;;;;10249970;28;20087;-68
2023/09/26 20:46:14;;;;;;;11.10;3.47;;;;;;;;;;10258011;28;20087;-68
2023/09/26 20:51:12;;;;;;;14.00;4.50;;;;;;;;;;10251407;28;20103;-68
2023/09/26 20:56:10;;;;;;;14.98;4.20;;;;;;;;;;10250985;28;20073;-67
2023/09/26 21:01:10;;;;;;;7.53;3.67;;;;;;;;;;10249039;28;20128;-68
2023/09/26 21:06:10;;;;;;;12.43;4.35;;;;;;;;;;10256968;28;20467;-67
2023/09/26 21:11:08;;;;;;;9.93;3.83;;;;;;;;;;10248218;28;20073;-68
2023/09/26 21:16:11;;;;;;;13.73;4.85;;;;;;;;;;10251163;28;20064;-68
2023/09/26 21:21:10;;;;;;;12.47;3.80;;;;;;;;;;10250171;28;20076;-68
2023/09/26 21:26:09;;;;;;;11.98;5.00;;;;;;;;;;10249038;28;20096;-67
2023/09/26 21:31:08;;;;;;;7.50;4.65;;;;;;;;;;10258502;28;20085;-66
2023/09/26 21:36:08;;;;;;;12.75;5.03;;;;;;;;;;10249569;28;20526;-67
2023/09/26 21:41:06;;;;;;;7.95;4.88;;;;;;;;;;10249332;28;20079;-68
2023/09/26 21:46:06;;;;;;;15.43;4.45;;;;;;;;;;10247740;28;20088;-68
2023/09/26 21:51:04;;;;;;;13.77;4.68;;;;;;;;;;10248470;28;20397;-68
2023/09/26 21:56:08;;;;;;;10.00;4.68;;;;;;;;;;10233166;28;20494;-68
2023/09/26 22:01:07;;;;;;;11.13;4.45;;;;;;;;;;10249401;28;20529;-68
2023/09/26 22:06:06;;;;;;;13.98;5.03;;;;;;;;;;10251089;28;20092;-67
2023/09/26 22:11:04;;;;;;;8.82;4.25;;;;;;;;;;10251643;28;20116;-67
2023/09/26 22:16:04;;;;;;;8.85;3.67;;;;;;;;;;10248471;28;20076;-68
2023/09/26 22:21:03;;;;;;;5.78;3.72;;;;;;;;;;10246033;28;20077;-68
2023/09/26 22:26:02;;;;;;;7.47;3.78;;;;;;;;;;10247333;28;20087;-67
2023/09/26 22:31:00;;;;;;;8.70;5.00;;;;;;;;;;10252265;28;20080;-67
2023/09/26 22:36:00;;;;;;;12.48;4.68;;;;;;;;;;10256135;28;20645;-69
2023/09/26 22:40:58;;;;;;;7.95;4.43;;;;;;;;;;10256173;28;20072;-67
2023/09/26 22:46:00;;;;;;;8.35;5.70;;;;;;;;;;10240614;28;20076;-67
2023/09/26 22:51:00;;;;;;;12.10;4.78;;;;;;;;;;10258574;28;20530;-67
2023/09/26 22:56:00;;;;;;;12.80;5.38;;;;;;;;;;10255283;28;20100;-67
2023/09/26 23:01:00;;;;;;;6.60;4.15;;;;;;;;;;10254970;28;20077;-67
2023/09/26 23:06:00;;;;;;;12.15;4.80;;;;;;;;;;10255000;28;20452;-67
2023/09/26 23:10:58;;;;;;;10.50;4.30;;;;;;;;;;10255132;28;20083;-68
2023/09/26 23:15:56;;;;;;;10.23;4.18;;;;;;;;;;10255259;28;20087;-67
2023/09/26 23:20:55;;;;;;;12.75;5.03;;;;;;;;;;10253697;28;20068;-67
2023/09/26 23:25:55;;;;;;;8.30;4.30;;;;;;;;;;10258877;28;20084;-67
2023/09/26 23:30:53;;;;;;;10.98;4.18;;;;;;;;;;10254460;28;20091;-68
2023/09/26 23:35:51;;;;;;;8.60;4.68;;;;;;;;;;10254194;28;20037;-67
2023/09/26 23:40:50;;;;;;;9.02;4.65;;;;;;;;;;10252037;28;20072;-67
2023/09/26 23:45:50;;;;;;;10.85;4.78;;;;;;;;;;10253897;28;20080;-67
2023/09/26 23:50:48;;;;;;;10.55;4.93;;;;;;;;;;10252603;28;20486;-67
2023/09/26 23:55:47;;;;;;;6.55;4.18;;;;;;;;;;10252397;28;20529;-67
